createdAt,value
2024-05-09T05:00:42.731Z,1014.14
2024-05-09T05:01:42.529Z,1014.16
2024-05-09T05:02:42.612Z,1014.20
2024-05-09T05:03:42.845Z,1014.17
2024-05-09T05:04:42.735Z,1014.18
2024-05-09T05:05:42.894Z,1014.12
2024-05-09T05:06:42.472Z,1014.15
2024-05-09T05:07:42.459Z,1014.18
2024-05-09T05:08:42.530Z,1014.11
2024-05-09T05:09:42.428Z,1014.10
2024-05-09T05:10:42.443Z,1014.11
2024-05-09T05:11:47.566Z,1014.19
2024-05-09T05:12:42.388Z,1014.19
2024-05-09T05:13:42.396Z,1014.18
2024-05-09T05:14:42.370Z,1014.22
2024-05-09T05:15:42.358Z,1014.25
2024-05-09T05:16:42.360Z,1014.29
2024-05-09T05:17:42.459Z,1014.16
2024-05-09T05:18:42.389Z,1014.28
2024-05-09T05:19:42.425Z,1014.32
2024-05-09T05:20:42.395Z,1014.21
2024-05-09T05:21:42.288Z,1014.24
2024-05-09T05:22:47.346Z,1014.21
2024-05-09T05:23:42.300Z,1014.21
2024-05-09T05:24:42.315Z,1014.29
2024-05-09T05:25:42.263Z,1014.25
2024-05-09T05:26:42.279Z,1014.20
2024-05-09T05:27:42.221Z,1014.18
2024-05-09T05:28:42.215Z,1014.23
2024-05-09T05:29:42.274Z,1014.27
2024-05-09T05:30:42.227Z,1014.25
2024-05-09T05:31:42.199Z,1014.23
2024-05-09T05:32:42.414Z,1014.14
2024-05-09T05:33:47.256Z,1014.25
2024-05-09T05:34:42.138Z,1014.25
2024-05-09T05:35:42.366Z,1014.26
2024-05-09T05:36:42.131Z,1014.26
2024-05-09T05:37:42.109Z,1014.29
2024-05-09T05:38:42.220Z,1014.23
2024-05-09T05:39:42.078Z,1014.24
2024-05-09T05:40:42.102Z,1014.23
2024-05-09T05:41:42.133Z,1014.30
2024-05-09T05:42:42.069Z,1014.26
2024-05-09T05:43:42.047Z,1014.30
2024-05-09T05:44:47.044Z,1014.35
2024-05-09T05:45:42.020Z,1014.30
2024-05-09T05:46:42.021Z,1014.30
2024-05-09T05:47:42.342Z,1014.29
2024-05-09T05:48:42.140Z,1014.32
2024-05-09T05:49:41.985Z,1014.43
2024-05-09T05:50:42.040Z,1014.37
2024-05-09T05:51:41.944Z,1014.41
2024-05-09T05:52:41.948Z,1014.43
2024-05-09T05:53:42.022Z,1014.41
2024-05-09T05:54:41.912Z,1014.44
2024-05-09T05:55:47.017Z,1014.48
2024-05-09T05:56:41.949Z,1014.50
2024-05-09T05:57:41.873Z,1014.42
2024-05-09T05:58:41.865Z,1014.44
2024-05-09T05:59:41.910Z,1014.39
2024-05-09T06:00:42.690Z,1014.40
2024-05-09T06:01:41.831Z,1014.38
2024-05-09T06:02:42.052Z,1014.42
2024-05-09T06:03:42.029Z,1014.34
2024-05-09T06:04:41.908Z,1014.38
2024-05-09T06:05:41.840Z,1014.45
2024-05-09T06:06:46.799Z,1014.36
2024-05-09T06:07:41.759Z,1014.42
2024-05-09T06:08:41.887Z,1014.44
2024-05-09T06:09:41.740Z,1014.46
2024-05-09T06:10:42.373Z,1014.43
2024-05-09T06:11:41.812Z,1014.46
2024-05-09T06:12:41.710Z,1014.45
2024-05-09T06:13:41.697Z,1014.37
2024-05-09T06:14:41.763Z,1014.38
2024-05-09T06:15:41.810Z,1014.46
2024-05-09T06:16:41.677Z,1014.44
2024-05-09T06:17:46.771Z,1014.52
2024-05-09T06:18:41.765Z,1014.51
2024-05-09T06:19:41.652Z,1014.55
2024-05-09T06:20:42.756Z,1014.49
2024-05-09T06:21:41.609Z,1014.56
2024-05-09T06:22:41.655Z,1014.50
2024-05-09T06:23:41.630Z,1014.55
2024-05-09T06:24:41.584Z,1014.47
2024-05-09T06:25:41.560Z,1014.46
2024-05-09T06:26:41.617Z,1014.44
2024-05-09T06:27:41.540Z,1014.52
2024-05-09T06:28:46.619Z,1014.45
2024-05-09T06:29:41.596Z,1014.43
2024-05-09T06:30:42.861Z,1014.47
2024-05-09T06:31:41.515Z,1014.45
2024-05-09T06:32:41.646Z,1014.37
2024-05-09T06:33:41.731Z,1014.37
2024-05-09T06:34:41.547Z,1014.38
2024-05-09T06:35:41.907Z,1014.35
2024-05-09T06:36:41.449Z,1014.40
2024-05-09T06:37:41.426Z,1014.34
2024-05-09T06:38:41.546Z,1014.30
2024-05-09T06:39:46.423Z,1014.34
2024-05-09T06:40:43.228Z,1014.38
2024-05-09T06:41:41.466Z,1014.37
2024-05-09T06:42:41.385Z,1014.35
2024-05-09T06:43:41.371Z,1014.35
2024-05-09T06:44:41.412Z,1014.44
2024-05-09T06:45:41.335Z,1014.31
2024-05-09T06:46:41.362Z,1014.38
2024-05-09T06:47:41.523Z,1014.43
2024-05-09T06:48:41.715Z,1014.39
2024-05-09T06:49:41.412Z,1014.37
2024-05-09T06:50:46.323Z,1014.41
2024-05-09T06:51:41.263Z,1014.40
2024-05-09T06:52:41.275Z,1014.42
2024-05-09T06:53:41.296Z,1014.39
2024-05-09T06:54:41.242Z,1014.42
2024-05-09T06:55:41.226Z,1014.49
2024-05-09T06:56:41.248Z,1014.37
2024-05-09T06:57:43.122Z,1014.41
2024-05-09T06:58:41.198Z,1014.40
2024-05-09T06:59:41.201Z,1014.35
2024-05-09T07:00:42.192Z,1014.43
2024-05-09T07:01:46.267Z,1014.51
2024-05-09T07:02:41.356Z,1014.47
2024-05-09T07:03:41.270Z,1014.44
2024-05-09T07:04:41.129Z,1014.50
2024-05-09T07:05:41.217Z,1014.50
2024-05-09T07:06:41.119Z,1014.48
2024-05-09T07:07:41.111Z,1014.48
2024-05-09T07:08:41.164Z,1014.45
2024-05-09T07:09:41.072Z,1014.51
2024-05-09T07:10:41.092Z,1014.49
2024-05-09T07:11:41.213Z,1014.62
2024-05-09T07:12:46.045Z,1014.61
2024-05-09T07:13:41.035Z,1014.56
2024-05-09T07:14:41.046Z,1014.51
2024-05-09T07:15:41.159Z,1014.53
2024-05-09T07:16:40.981Z,1014.45
2024-05-09T07:17:41.133Z,1014.39
2024-05-09T07:18:41.266Z,1014.47
2024-05-09T07:19:41.107Z,1014.43
2024-05-09T07:20:41.051Z,1014.46
2024-05-09T07:21:40.933Z,1014.49
2024-05-09T07:22:40.916Z,1014.42
2024-05-09T07:23:47.453Z,1014.45
2024-05-09T07:24:40.899Z,1014.43
2024-05-09T07:25:40.875Z,1014.44
2024-05-09T07:26:40.960Z,1014.38
2024-05-09T07:27:40.881Z,1014.38
2024-05-09T07:28:40.868Z,1014.40
2024-05-09T07:29:40.973Z,1014.39
2024-05-09T07:30:40.824Z,1014.41
2024-05-09T07:31:40.816Z,1014.41
2024-05-09T07:32:40.876Z,1014.37
2024-05-09T07:33:40.880Z,1014.38
2024-05-09T07:34:45.880Z,1014.41
2024-05-09T07:35:40.810Z,1014.41
2024-05-09T07:36:40.755Z,1014.33
2024-05-09T07:37:40.742Z,1014.42
2024-05-09T07:38:40.819Z,1014.43
2024-05-09T07:39:40.739Z,1014.32
2024-05-09T07:40:40.713Z,1014.32
2024-05-09T07:41:40.740Z,1014.36
2024-05-09T07:42:40.714Z,1014.32
2024-05-09T07:43:40.685Z,1014.36
2024-05-09T07:44:40.707Z,1014.35
2024-05-09T07:45:52.039Z,1014.29
2024-05-09T07:47:47.723Z,1014.30
2024-05-09T07:49:12.053Z,1014.30
2024-05-09T07:53:45.451Z,1014.31
2024-05-09T07:54:41.688Z,1014.29
2024-05-09T07:55:40.782Z,1014.29
2024-05-09T07:56:45.702Z,1014.33
2024-05-09T07:57:40.662Z,1014.30
2024-05-09T07:58:40.540Z,1014.21
2024-05-09T07:59:40.514Z,1014.25
2024-05-09T08:00:40.603Z,1014.30
2024-05-09T08:01:40.574Z,1014.25
2024-05-09T08:02:40.487Z,1014.23
2024-05-09T08:03:40.674Z,1014.29
2024-05-09T08:04:40.633Z,1014.31
2024-05-09T08:05:40.488Z,1014.30
2024-05-09T08:06:40.463Z,1014.32
2024-05-09T08:07:45.444Z,1014.32
2024-05-09T08:08:40.398Z,1014.33
2024-05-09T08:09:40.416Z,1014.26
2024-05-09T08:10:40.401Z,1014.27
2024-05-09T08:11:40.424Z,1014.20
2024-05-09T08:12:40.420Z,1014.27
2024-05-09T08:13:40.366Z,1014.22
2024-05-09T08:14:40.327Z,1014.26
2024-05-09T08:15:40.346Z,1014.17
2024-05-09T08:16:40.314Z,1014.16
2024-05-09T08:17:40.438Z,1014.16
2024-05-09T08:18:45.431Z,1014.13
2024-05-09T08:19:40.351Z,1014.08
2024-05-09T08:20:40.305Z,1014.09
2024-05-09T08:21:40.255Z,1014.17
2024-05-09T08:22:40.238Z,1014.14
2024-05-09T08:23:40.277Z,1014.14
2024-05-09T08:24:40.232Z,1014.12
2024-05-09T08:25:40.193Z,1014.20
2024-05-09T08:26:40.186Z,1014.16
2024-05-09T08:27:40.256Z,1014.16
2024-05-09T08:28:40.218Z,1014.11
2024-05-09T08:29:45.281Z,1014.11
2024-05-09T08:30:40.326Z,1014.08
2024-05-09T08:31:40.247Z,1014.11
2024-05-09T08:32:40.247Z,1014.18
2024-05-09T08:33:40.292Z,1014.13
2024-05-09T08:34:40.161Z,1014.06
2024-05-09T08:35:40.081Z,1014.07
2024-05-09T08:36:40.119Z,1014.09
2024-05-09T08:37:40.798Z,1014.04
2024-05-09T08:38:40.048Z,1013.99
2024-05-09T08:39:40.127Z,1014.03
2024-05-09T08:40:45.179Z,1014.03
2024-05-09T08:41:40.017Z,1014.01
2024-05-09T08:42:40.055Z,1013.97
2024-05-09T08:43:42.017Z,1013.99
2024-05-09T08:44:39.984Z,1013.95
2024-05-09T08:45:40.012Z,1013.98
2024-05-09T08:46:39.974Z,1013.91
2024-05-09T08:47:40.006Z,1014.01
2024-05-09T08:48:40.087Z,1013.93
2024-05-09T08:49:41.502Z,1013.99
2024-05-09T08:50:40.493Z,1014.00
2024-05-09T08:51:45.000Z,1014.06
2024-05-09T08:52:39.889Z,1014.07
2024-05-09T08:53:39.878Z,1013.96
2024-05-09T08:54:39.905Z,1014.01
2024-05-09T08:55:42.914Z,1013.98
2024-05-09T08:56:39.857Z,1014.05
2024-05-09T08:57:39.976Z,1014.07
2024-05-09T08:58:39.831Z,1014.11
2024-05-09T08:59:39.823Z,1013.99
2024-05-09T09:00:39.924Z,1013.94
2024-05-09T09:01:40.899Z,1014.02
2024-05-09T09:02:45.076Z,1014.01
2024-05-09T09:03:40.325Z,1014.02
2024-05-09T09:04:39.848Z,1013.92
2024-05-09T09:05:40.334Z,1013.92
2024-05-09T09:06:39.774Z,1014.03
2024-05-09T09:07:39.718Z,1013.94
2024-05-09T09:08:39.781Z,1013.98
2024-05-09T09:09:39.752Z,1014.00
2024-05-09T09:10:39.947Z,1013.90
2024-05-09T09:11:39.747Z,1013.91
2024-05-09T09:12:39.738Z,1013.88
2024-05-09T09:13:44.695Z,1013.81
2024-05-09T09:14:39.696Z,1013.85
2024-05-09T09:15:39.669Z,1013.79
2024-05-09T09:16:39.616Z,1013.90
2024-05-09T09:17:39.763Z,1013.86
2024-05-09T09:18:39.744Z,1013.82
2024-05-09T09:19:39.635Z,1013.77
2024-05-09T09:20:39.655Z,1013.81
2024-05-09T09:21:39.614Z,1013.91
2024-05-09T09:22:39.546Z,1013.96
2024-05-09T09:23:39.566Z,1013.90
2024-05-09T09:24:44.601Z,1013.96
2024-05-09T09:25:39.549Z,1013.94
2024-05-09T09:26:39.515Z,1013.93
2024-05-09T09:27:39.513Z,1013.86
2024-05-09T09:28:39.483Z,1013.89
2024-05-09T09:29:39.480Z,1013.85
2024-05-09T09:30:39.604Z,1013.91
2024-05-09T09:31:39.515Z,1014.01
2024-05-09T09:32:39.529Z,1014.01
2024-05-09T09:33:39.777Z,1013.94
2024-05-09T09:34:39.477Z,1013.94
2024-05-09T09:35:44.423Z,1013.95
2024-05-09T09:36:39.436Z,1013.99
2024-05-09T09:37:39.380Z,1013.96
2024-05-09T09:38:39.366Z,1013.94
2024-05-09T09:39:39.394Z,1013.88
2024-05-09T09:40:44.748Z,1013.91
2024-05-09T09:41:40.339Z,1013.89
2024-05-09T09:42:39.353Z,1013.97
2024-05-09T09:43:39.338Z,1013.92
2024-05-09T09:44:42.136Z,1013.98
2024-05-09T09:45:39.392Z,1013.90
2024-05-09T09:46:44.367Z,1013.69
2024-05-09T09:47:39.345Z,1013.83
2024-05-09T09:48:39.512Z,1013.70
2024-05-09T09:49:39.297Z,1013.71
2024-05-09T09:50:39.240Z,1013.73
2024-05-09T09:51:39.294Z,1013.85
2024-05-09T09:52:39.232Z,1013.84
2024-05-09T09:53:39.212Z,1013.77
2024-05-09T09:54:39.190Z,1013.81
2024-05-09T09:55:39.184Z,1013.79
2024-05-09T09:56:39.159Z,1013.76
2024-05-09T09:57:44.219Z,1013.78
2024-05-09T09:58:39.161Z,1013.85
2024-05-09T09:59:39.129Z,1013.73
2024-05-09T10:00:39.353Z,1013.75
2024-05-09T10:01:39.146Z,1013.72
2024-05-09T10:02:39.242Z,1013.72
2024-05-09T10:03:39.342Z,1013.70
2024-05-09T10:04:39.225Z,1013.71
2024-05-09T10:05:41.322Z,1013.74
2024-05-09T10:06:39.119Z,1013.73
2024-05-09T10:07:39.042Z,1013.70
2024-05-09T10:08:44.046Z,1013.78
2024-05-09T10:09:39.051Z,1013.74
2024-05-09T10:10:39.066Z,1013.79
2024-05-09T10:11:45.201Z,1013.79
2024-05-09T10:12:39.024Z,1013.84
2024-05-09T10:13:39.001Z,1013.77
2024-05-09T10:14:38.969Z,1013.71
2024-05-09T10:15:38.968Z,1013.68
2024-05-09T10:16:38.941Z,1013.72
2024-05-09T10:17:39.043Z,1013.80
2024-05-09T10:18:39.173Z,1013.66
2024-05-09T10:19:43.974Z,1013.62
2024-05-09T10:20:38.890Z,1013.67
2024-05-09T10:21:38.920Z,1013.66
2024-05-09T10:22:38.871Z,1013.68
2024-05-09T10:23:38.869Z,1013.65
2024-05-09T10:24:38.872Z,1013.60
2024-05-09T10:25:38.830Z,1013.69
2024-05-09T10:26:38.819Z,1013.65
2024-05-09T10:27:38.847Z,1013.60
2024-05-09T10:28:38.818Z,1013.65
2024-05-09T10:29:38.785Z,1013.63
2024-05-09T10:30:44.866Z,1013.63
2024-05-09T10:31:38.858Z,1013.72
2024-05-09T10:32:38.895Z,1013.60
2024-05-09T10:33:39.002Z,1013.67
2024-05-09T10:34:38.822Z,1013.61
2024-05-09T10:35:38.736Z,1013.52
2024-05-09T10:36:38.779Z,1013.51
2024-05-09T10:37:38.695Z,1013.51
2024-05-09T10:38:38.734Z,1013.54
2024-05-09T10:39:38.782Z,1013.55
2024-05-09T10:40:38.751Z,1013.48
2024-05-09T10:41:43.694Z,1013.41
2024-05-09T10:42:38.688Z,1013.50
2024-05-09T10:43:38.625Z,1013.44
2024-05-09T10:44:38.647Z,1013.59
2024-05-09T10:45:38.622Z,1013.43
2024-05-09T10:46:38.623Z,1013.53
2024-05-09T10:47:38.694Z,1013.46
2024-05-09T10:48:38.868Z,1013.49
2024-05-09T10:49:38.706Z,1013.46
2024-05-09T10:50:38.572Z,1013.44
2024-05-09T10:51:38.618Z,1013.41
2024-05-09T10:52:43.556Z,1013.37
2024-05-09T10:53:38.520Z,1013.37
2024-05-09T10:54:38.536Z,1013.37
2024-05-09T10:55:38.507Z,1013.44
2024-05-09T10:56:38.478Z,1013.42
2024-05-09T10:57:38.487Z,1013.43
2024-05-09T10:58:38.462Z,1013.49
2024-05-09T10:59:38.446Z,1013.56
2024-05-09T11:00:38.575Z,1013.37
2024-05-09T11:01:38.549Z,1013.34
2024-05-09T11:02:38.608Z,1013.45
2024-05-09T11:03:43.663Z,1013.27
2024-05-09T11:04:38.473Z,1013.53
2024-05-09T11:05:38.499Z,1013.47
2024-05-09T11:06:38.581Z,1013.40
2024-05-09T11:07:38.357Z,1013.25
2024-05-09T11:08:38.341Z,1013.28
2024-05-09T11:09:38.385Z,1013.15
2024-05-09T11:10:38.341Z,1013.23
2024-05-09T11:11:38.369Z,1013.28
2024-05-09T11:12:38.333Z,1013.22
2024-05-09T11:13:38.321Z,1013.34
2024-05-09T11:14:43.318Z,1013.26
2024-05-09T11:15:38.379Z,1013.23
2024-05-09T11:16:38.275Z,1013.17
2024-05-09T11:17:38.319Z,1013.58
2024-05-09T11:18:39.379Z,1013.43
2024-05-09T11:19:38.292Z,1013.50
2024-05-09T11:20:38.526Z,1013.48
2024-05-09T11:21:38.295Z,1013.47
2024-05-09T11:22:38.206Z,1013.46
2024-05-09T11:23:38.183Z,1013.50
2024-05-09T11:24:38.294Z,1013.50
2024-05-09T11:25:38.156Z,1013.47
2024-05-09T11:26:38.154Z,1013.25
2024-05-09T11:27:43.172Z,1013.20
2024-05-09T11:28:38.151Z,1013.06
2024-05-09T11:29:38.144Z,1013.01
2024-05-09T11:30:38.167Z,1013.02
2024-05-09T11:31:38.156Z,1013.02
2024-05-09T11:32:38.214Z,1013.07
2024-05-09T11:33:38.334Z,1013.02
2024-05-09T11:34:38.093Z,1013.02
2024-05-09T11:35:38.073Z,1013.05
2024-05-09T11:36:38.109Z,1012.99
2024-05-09T11:37:38.032Z,1013.02
2024-05-09T11:38:38.064Z,1012.98
2024-05-09T11:39:38.050Z,1012.95
2024-05-09T11:40:43.143Z,1013.00
2024-05-09T11:41:38.011Z,1013.11
2024-05-09T11:42:38.017Z,1013.08
2024-05-09T11:43:37.959Z,1012.89
2024-05-09T11:44:37.970Z,1013.00
2024-05-09T11:45:37.951Z,1012.96
2024-05-09T11:46:37.920Z,1013.03
2024-05-09T11:47:38.015Z,1013.06
2024-05-09T11:48:38.220Z,1013.10
2024-05-09T11:49:37.909Z,1013.25
2024-05-09T11:50:37.926Z,1013.10
2024-05-09T11:51:37.930Z,1013.10
2024-05-09T11:52:37.852Z,1013.21
2024-05-09T11:53:42.906Z,1013.15
2024-05-09T11:54:37.898Z,1013.25
2024-05-09T11:55:37.864Z,1013.15
2024-05-09T11:56:37.806Z,1013.12
2024-05-09T11:57:37.912Z,1013.19
2024-05-09T11:58:37.791Z,1013.10
2024-05-09T11:59:37.776Z,1013.12
2024-05-09T12:00:38.154Z,1013.10
2024-05-09T12:01:37.977Z,1013.10
2024-05-09T12:02:37.946Z,1013.08
2024-05-09T12:03:37.895Z,1013.04
2024-05-09T12:04:37.849Z,1013.09
2024-05-09T12:05:37.859Z,1013.07
2024-05-09T12:06:42.768Z,1013.06
2024-05-09T12:07:37.686Z,1013.06
2024-05-09T12:08:37.692Z,1013.06
2024-05-09T12:09:37.738Z,1013.08
2024-05-09T12:10:37.888Z,1013.04
2024-05-09T12:11:37.719Z,1013.05
2024-05-09T12:12:37.705Z,1012.97
2024-05-09T12:13:37.672Z,1013.01
2024-05-09T12:14:37.612Z,1012.95
2024-05-09T12:15:38.713Z,1012.90
2024-05-09T12:16:37.760Z,1012.92
2024-05-09T12:17:42.656Z,1012.84
2024-05-09T12:18:37.689Z,1012.85
2024-05-09T12:19:37.731Z,1012.89
2024-05-09T12:20:39.733Z,1012.87
2024-05-09T12:21:37.562Z,1012.83
2024-05-09T12:22:37.539Z,1012.82
2024-05-09T12:23:37.537Z,1012.83
2024-05-09T12:24:37.565Z,1012.84
2024-05-09T12:25:37.521Z,1012.77
2024-05-09T12:26:37.494Z,1012.78
2024-05-09T12:27:37.568Z,1012.66
2024-05-09T12:28:42.489Z,1012.49
2024-05-09T12:29:38.939Z,1012.45
2024-05-09T12:30:39.979Z,1012.46
2024-05-09T12:31:37.533Z,1012.41
2024-05-09T12:32:37.505Z,1012.42
2024-05-09T12:33:37.519Z,1012.41
2024-05-09T12:34:37.420Z,1012.40
2024-05-09T12:35:37.443Z,1012.43
2024-05-09T12:36:37.478Z,1012.43
2024-05-09T12:37:37.371Z,1012.49
2024-05-09T12:38:37.376Z,1012.46
2024-05-09T12:39:42.387Z,1012.46
2024-05-09T12:40:38.972Z,1012.42
2024-05-09T12:41:37.347Z,1012.47
2024-05-09T12:42:37.385Z,1012.45
2024-05-09T12:43:37.354Z,1012.45
2024-05-09T12:44:37.291Z,1012.46
2024-05-09T12:45:37.929Z,1012.48
2024-05-09T12:46:37.316Z,1012.40
2024-05-09T12:47:37.395Z,1012.38
2024-05-09T12:48:37.457Z,1012.46
2024-05-09T12:49:37.350Z,1012.33
2024-05-09T12:50:42.414Z,1012.35
2024-05-09T12:51:37.298Z,1012.38
2024-05-09T12:52:37.230Z,1012.36
2024-05-09T12:53:37.198Z,1012.44
2024-05-09T12:54:37.282Z,1012.35
2024-05-09T12:55:44.476Z,1012.39
2024-05-09T12:56:37.161Z,1012.34
2024-05-09T12:57:37.190Z,1012.35
2024-05-09T12:58:37.161Z,1012.34
2024-05-09T12:59:37.144Z,1012.33
2024-05-09T13:00:37.230Z,1012.32
2024-05-09T13:01:37.263Z,1012.31
2024-05-09T13:02:37.259Z,1012.23
2024-05-09T13:03:42.363Z,1012.29
2024-05-09T13:04:37.254Z,1012.27
2024-05-09T13:05:37.319Z,1012.20
2024-05-09T13:06:37.109Z,1012.25
2024-05-09T13:07:37.036Z,1012.32
2024-05-09T13:08:37.032Z,1012.33
2024-05-09T13:09:37.054Z,1012.27
2024-05-09T13:10:37.198Z,1012.25
2024-05-09T13:11:37.034Z,1012.25
2024-05-09T13:12:37.015Z,1012.23
2024-05-09T13:13:36.988Z,1012.22
2024-05-09T13:14:36.959Z,1012.19
2024-05-09T13:15:36.960Z,1012.18
2024-05-09T13:16:42.043Z,1012.14
2024-05-09T13:17:37.008Z,1012.19
2024-05-09T13:18:36.991Z,1012.13
2024-05-09T13:19:36.917Z,1012.10
2024-05-09T13:20:37.221Z,1012.16
2024-05-09T13:21:36.925Z,1012.10
2024-05-09T13:22:36.865Z,1012.09
2024-05-09T13:23:36.891Z,1012.09
2024-05-09T13:24:36.912Z,1012.09
2024-05-09T13:25:37.578Z,1012.06
2024-05-09T13:26:36.831Z,1012.09
2024-05-09T13:27:41.875Z,1012.08
2024-05-09T13:28:36.839Z,1012.05
2024-05-09T13:29:37.335Z,1012.00
2024-05-09T13:30:40.654Z,1012.05
2024-05-09T13:31:37.819Z,1012.04
2024-05-09T13:32:36.828Z,1011.98
2024-05-09T13:33:36.938Z,1011.88
2024-05-09T13:34:36.781Z,1011.89
2024-05-09T13:35:36.739Z,1011.91
2024-05-09T13:36:36.772Z,1011.83
2024-05-09T13:37:36.751Z,1011.80
2024-05-09T13:38:41.733Z,1011.86
2024-05-09T13:39:36.743Z,1011.90
2024-05-09T13:40:36.873Z,1011.89
2024-05-09T13:41:36.660Z,1011.80
2024-05-09T13:42:36.689Z,1011.77
2024-05-09T13:43:36.680Z,1011.83
2024-05-09T13:44:36.620Z,1011.76
2024-05-09T13:45:36.655Z,1011.78
2024-05-09T13:46:36.608Z,1011.78
2024-05-09T13:47:36.672Z,1011.78
2024-05-09T13:48:36.728Z,1011.67
2024-05-09T13:49:41.672Z,1011.75
2024-05-09T13:50:37.161Z,1011.75
2024-05-09T13:51:36.661Z,1011.67
2024-05-09T13:52:36.528Z,1011.68
2024-05-09T13:53:36.576Z,1011.66
2024-05-09T13:54:36.576Z,1011.67
2024-05-09T13:55:36.503Z,1011.59
2024-05-09T13:56:36.508Z,1011.64
2024-05-09T13:57:36.550Z,1011.71
2024-05-09T13:58:36.465Z,1011.69
2024-05-09T13:59:36.469Z,1011.66
2024-05-09T14:00:46.593Z,1011.68
2024-05-09T14:01:37.494Z,1011.60
2024-05-09T14:02:36.648Z,1011.59
2024-05-09T14:03:36.559Z,1011.57
2024-05-09T14:04:36.582Z,1011.56
2024-05-09T14:05:36.563Z,1011.55
2024-05-09T14:06:36.423Z,1011.60
2024-05-09T14:07:36.358Z,1011.51
2024-05-09T14:08:36.349Z,1011.50
2024-05-09T14:09:36.378Z,1011.51
2024-05-09T14:10:36.388Z,1011.48
2024-05-09T14:11:41.358Z,1011.42
2024-05-09T14:12:36.351Z,1011.43
2024-05-09T14:13:36.310Z,1011.35
2024-05-09T14:14:36.289Z,1011.46
2024-05-09T14:15:36.302Z,1011.32
2024-05-09T14:16:36.445Z,1011.32
2024-05-09T14:17:36.344Z,1011.42
2024-05-09T14:18:36.423Z,1011.39
2024-05-09T14:19:36.230Z,1011.36
2024-05-09T14:20:36.210Z,1011.46
2024-05-09T14:21:36.264Z,1011.44
2024-05-09T14:22:41.234Z,1011.36
2024-05-09T14:23:36.185Z,1011.33
2024-05-09T14:24:36.239Z,1011.32
2024-05-09T14:25:39.978Z,1011.34
2024-05-09T14:26:36.150Z,1011.27
2024-05-09T14:27:36.231Z,1011.25
2024-05-09T14:28:36.141Z,1011.23
2024-05-09T14:29:36.128Z,1011.28
2024-05-09T14:30:38.037Z,1011.20
2024-05-09T14:31:39.297Z,1011.21
2024-05-09T14:32:36.159Z,1011.22
2024-05-09T14:33:41.187Z,1011.22
2024-05-09T14:34:36.120Z,1011.24
2024-05-09T14:35:36.079Z,1011.17
2024-05-09T14:36:36.121Z,1011.24
2024-05-09T14:37:38.662Z,1011.23
2024-05-09T14:38:36.018Z,1011.18
2024-05-09T14:39:36.009Z,1011.24
2024-05-09T14:40:41.308Z,1011.23
2024-05-09T14:41:35.967Z,1011.18
2024-05-09T14:42:35.989Z,1011.25
2024-05-09T14:43:36.091Z,1011.20
2024-05-09T14:44:40.966Z,1011.13
2024-05-09T14:45:36.041Z,1011.19
2024-05-09T14:46:35.953Z,1011.21
2024-05-09T14:47:35.980Z,1011.15
2024-05-09T14:48:35.974Z,1011.14
2024-05-09T14:49:35.930Z,1011.13
2024-05-09T14:50:38.919Z,1011.07
2024-05-09T14:51:35.925Z,1011.08
2024-05-09T14:52:35.845Z,1011.09
2024-05-09T14:53:35.843Z,1011.12
2024-05-09T14:54:35.891Z,1011.01
2024-05-09T14:55:42.196Z,1011.02
2024-05-09T14:56:35.792Z,1011.00
2024-05-09T14:57:35.830Z,1010.96
2024-05-09T14:58:35.790Z,1011.02
2024-05-09T14:59:35.764Z,1010.97
2024-05-09T15:00:37.244Z,1010.97
2024-05-09T15:01:35.800Z,1010.94
2024-05-09T15:02:35.806Z,1010.94
2024-05-09T15:03:35.896Z,1010.86
2024-05-09T15:04:35.828Z,1010.89
2024-05-09T15:05:35.786Z,1010.81
2024-05-09T15:06:40.764Z,1010.83
2024-05-09T15:07:35.669Z,1010.87
2024-05-09T15:08:35.681Z,1010.89
2024-05-09T15:09:35.702Z,1010.85
2024-05-09T15:10:37.012Z,1010.83
2024-05-09T15:11:35.719Z,1010.90
2024-05-09T15:12:35.692Z,1010.89
2024-05-09T15:13:35.629Z,1010.82
2024-05-09T15:14:35.587Z,1010.83
2024-05-09T15:15:35.635Z,1010.76
2024-05-09T15:16:35.624Z,1010.81
2024-05-09T15:17:40.681Z,1010.81
2024-05-09T15:18:35.766Z,1010.77
2024-05-09T15:19:35.753Z,1010.75
2024-05-09T15:20:37.152Z,1010.76
2024-05-09T15:21:35.555Z,1010.77
2024-05-09T15:22:35.495Z,1010.74
2024-05-09T15:23:35.481Z,1010.69
2024-05-09T15:24:35.506Z,1010.78
2024-05-09T15:25:36.394Z,1010.73
2024-05-09T15:26:35.467Z,1010.72
2024-05-09T15:27:35.469Z,1010.74
2024-05-09T15:28:40.487Z,1010.70
2024-05-09T15:29:35.413Z,1010.72
2024-05-09T15:30:35.789Z,1010.68
2024-05-09T15:31:35.423Z,1010.68
2024-05-09T15:32:35.535Z,1010.61
2024-05-09T15:33:35.551Z,1010.62
2024-05-09T15:34:35.420Z,1010.64
2024-05-09T15:35:35.609Z,1010.62
2024-05-09T15:36:35.418Z,1010.59
2024-05-09T15:37:35.324Z,1010.58
2024-05-09T15:38:35.312Z,1010.58
2024-05-09T15:39:40.394Z,1010.60
2024-05-09T15:40:39.587Z,1010.61
2024-05-09T15:41:36.304Z,1010.57
2024-05-09T15:42:35.360Z,1010.56
2024-05-09T15:43:35.330Z,1010.59
2024-05-09T15:44:35.248Z,1010.62
2024-05-09T15:45:35.415Z,1010.56
2024-05-09T15:46:35.295Z,1010.63
2024-05-09T15:47:35.348Z,1010.67
2024-05-09T15:48:35.414Z,1010.55
2024-05-09T15:49:35.333Z,1010.51
2024-05-09T15:50:42.136Z,1010.48
2024-05-09T15:51:35.226Z,1010.53
2024-05-09T15:52:35.176Z,1010.48
2024-05-09T15:53:35.155Z,1010.59
2024-05-09T15:54:35.176Z,1010.57
2024-05-09T15:55:35.589Z,1010.57
2024-05-09T15:56:35.102Z,1010.60
2024-05-09T15:57:35.178Z,1010.49
2024-05-09T15:58:35.106Z,1010.52
2024-05-09T15:59:35.088Z,1010.56
2024-05-09T16:00:39.098Z,1010.51
2024-05-09T16:01:40.196Z,1010.52
2024-05-09T16:02:35.187Z,1010.58
2024-05-09T16:03:35.177Z,1010.50
2024-05-09T16:04:35.088Z,1010.49
2024-05-09T16:05:35.247Z,1010.51
2024-05-09T16:06:35.053Z,1010.46
2024-05-09T16:07:34.994Z,1010.50
2024-05-09T16:08:35.018Z,1010.48
2024-05-09T16:09:35.053Z,1010.47
2024-05-09T16:10:35.593Z,1010.53
2024-05-09T16:11:35.081Z,1010.47
2024-05-09T16:12:39.981Z,1010.53
2024-05-09T16:13:34.913Z,1010.50
2024-05-09T16:14:34.908Z,1010.55
2024-05-09T16:15:34.941Z,1010.51
2024-05-09T16:16:34.946Z,1010.56
2024-05-09T16:17:34.951Z,1010.59
2024-05-09T16:18:34.913Z,1010.56
2024-05-09T16:19:34.853Z,1010.52
2024-05-09T16:20:39.937Z,1010.43
2024-05-09T16:21:34.894Z,1010.41
2024-05-09T16:22:34.805Z,1010.49
2024-05-09T16:23:39.835Z,1010.43
2024-05-09T16:24:34.880Z,1010.45
2024-05-09T16:25:34.831Z,1010.39
2024-05-09T16:26:34.810Z,1010.49
2024-05-09T16:27:34.759Z,1010.46
2024-05-09T16:28:34.849Z,1010.43
2024-05-09T16:29:34.723Z,1010.48
2024-05-09T16:30:35.997Z,1010.49
2024-05-09T16:31:34.767Z,1010.42
2024-05-09T16:32:34.809Z,1010.50
2024-05-09T16:33:34.842Z,1010.45
2024-05-09T16:34:39.780Z,1010.43
2024-05-09T16:35:35.068Z,1010.36
2024-05-09T16:36:34.773Z,1010.48
2024-05-09T16:37:34.642Z,1010.32
2024-05-09T16:38:34.650Z,1010.37
2024-05-09T16:39:34.687Z,1010.38
2024-05-09T16:40:39.027Z,1010.35
2024-05-09T16:41:34.606Z,1010.40
2024-05-09T16:42:34.611Z,1010.34
2024-05-09T16:43:34.566Z,1010.42
2024-05-09T16:44:35.728Z,1010.43
2024-05-09T16:45:39.831Z,1010.34
2024-05-09T16:46:34.538Z,1010.38
2024-05-09T16:47:34.884Z,1010.34
2024-05-09T16:48:34.660Z,1010.38
2024-05-09T16:49:34.520Z,1010.31
2024-05-09T16:50:35.782Z,1010.29
2024-05-09T16:51:34.535Z,1010.29
2024-05-09T16:52:34.476Z,1010.30
2024-05-09T16:53:34.485Z,1010.38
2024-05-09T16:54:34.492Z,1010.27
2024-05-09T16:55:34.970Z,1010.31
2024-05-09T16:56:39.456Z,1010.36
2024-05-09T16:57:34.425Z,1010.36
2024-05-09T16:58:34.463Z,1010.36
2024-05-09T16:59:34.404Z,1010.36
2024-05-09T17:00:41.089Z,1010.33
2024-05-09T17:01:35.425Z,1010.33
2024-05-09T17:02:34.561Z,1010.35
2024-05-09T17:03:34.565Z,1010.34
2024-05-09T17:04:34.569Z,1010.32
2024-05-09T17:05:35.415Z,1010.30
2024-05-09T17:06:34.339Z,1010.36
2024-05-09T17:07:39.326Z,1010.28
2024-05-09T17:08:34.292Z,1010.31
2024-05-09T17:09:34.298Z,1010.24
2024-05-09T17:10:35.397Z,1010.30